createdAt,value
2023-04-21T00:00:35.528Z,8.95
2023-04-21T00:03:04.179Z,10.85
2023-04-21T00:05:33.431Z,11.55
2023-04-21T00:08:03.645Z,10.02
2023-04-21T00:10:32.093Z,10.15
2023-04-21T00:13:00.479Z,12.38
2023-04-21T00:15:28.876Z,7.28
2023-04-21T00:17:58.217Z,11.35
2023-04-21T00:20:26.871Z,12.27
2023-04-21T00:22:55.401Z,13.25
2023-04-21T00:25:25.631Z,11.77
2023-04-21T00:27:54.052Z,7.93
2023-04-21T00:30:22.518Z,9.38
2023-04-21T00:32:51.046Z,9.65
2023-04-21T00:35:19.526Z,11.93
2023-04-21T00:37:47.867Z,13.13
2023-04-21T00:40:16.311Z,13.55
2023-04-21T00:42:46.095Z,10.50
2023-04-21T00:45:15.326Z,14.30
2023-04-21T00:47:43.828Z,10.38
2023-04-21T00:50:12.985Z,11.70
2023-04-21T00:52:41.885Z,15.63
2023-04-21T00:55:10.939Z,14.85
2023-04-21T00:57:39.405Z,16.13
2023-04-21T01:00:10.615Z,10.57
2023-04-21T01:02:40.030Z,14.18
2023-04-21T01:05:09.312Z,14.35
2023-04-21T01:07:37.823Z,17.92
2023-04-21T01:10:06.871Z,12.75
2023-04-21T01:12:35.690Z,17.42
2023-04-21T01:15:04.089Z,14.43
2023-04-21T01:17:38.528Z,12.30
2023-04-21T01:20:09.853Z,11.05
2023-04-21T01:22:40.584Z,13.88
2023-04-21T01:25:09.224Z,11.85
2023-04-21T01:27:37.611Z,14.88
2023-04-21T01:30:07.310Z,17.48
2023-04-21T01:32:35.912Z,16.52
2023-04-21T01:35:04.379Z,17.88
2023-04-21T01:37:33.813Z,13.18
2023-04-21T01:40:05.178Z,17.30
2023-04-21T01:42:34.053Z,15.48
2023-04-21T01:45:02.599Z,10.82
2023-04-21T01:47:31.042Z,19.27
2023-04-21T01:49:59.476Z,18.77
2023-04-21T01:52:27.869Z,18.80
2023-04-21T01:54:56.896Z,15.57
2023-04-21T01:57:26.829Z,16.00
2023-04-21T01:59:55.249Z,20.55
2023-04-21T02:02:23.699Z,14.15
2023-04-21T02:04:52.190Z,14.75
2023-04-21T02:07:20.664Z,16.75
2023-04-21T02:09:49.107Z,13.90
2023-04-21T02:12:17.509Z,16.10
2023-04-21T02:14:48.208Z,15.60
2023-04-21T02:17:16.751Z,17.13
2023-04-21T02:19:45.417Z,13.70
2023-04-21T02:22:13.816Z,18.08
2023-04-21T02:24:42.306Z,18.27
2023-04-21T02:27:10.731Z,15.35
2023-04-21T02:29:39.093Z,16.27
2023-04-21T02:32:22.178Z,15.23
2023-04-21T02:34:54.154Z,20.13
2023-04-21T02:37:22.774Z,11.43
2023-04-21T02:39:51.192Z,20.77
2023-04-21T02:42:19.606Z,21.80
2023-04-21T02:44:48.084Z,16.73
2023-04-21T02:47:18.330Z,15.80
2023-04-21T02:49:46.829Z,10.90
2023-04-21T02:52:16.095Z,15.90
2023-04-21T02:54:44.490Z,13.38
2023-04-21T02:57:12.892Z,23.80
2023-04-21T02:59:41.384Z,20.65
2023-04-21T03:02:09.841Z,17.05
2023-04-21T03:04:39.676Z,20.52
2023-04-21T03:07:13.637Z,19.02
2023-04-21T03:09:42.281Z,21.33
2023-04-21T03:12:10.703Z,17.75
2023-04-21T03:14:39.114Z,17.98
2023-04-21T03:17:07.533Z,14.35
2023-04-21T03:19:35.891Z,23.02
2023-04-21T03:22:05.675Z,17.05
2023-04-21T03:24:34.140Z,19.20
2023-04-21T03:27:02.896Z,19.27
2023-04-21T03:29:31.320Z,21.65
2023-04-21T03:31:59.814Z,25.42
2023-04-21T03:34:28.295Z,14.07
2023-04-21T03:36:56.956Z,20.95
2023-04-21T03:39:26.974Z,13.82
2023-04-21T03:41:55.398Z,16.02
2023-04-21T03:44:23.895Z,21.90
2023-04-21T03:46:54.530Z,21.98
2023-04-21T03:49:23.169Z,20.30
2023-04-21T03:51:51.704Z,18.77
2023-04-21T03:54:20.064Z,15.23
2023-04-21T03:56:49.859Z,15.20
2023-04-21T03:59:18.546Z,17.95
2023-04-21T04:01:47.284Z,22.27
2023-04-21T04:04:16.003Z,12.52
2023-04-21T04:06:44.504Z,20.05
2023-04-21T04:09:12.965Z,18.85
2023-04-21T04:11:41.391Z,14.40
2023-04-21T04:14:11.347Z,11.07
2023-04-21T04:16:39.854Z,22.38
2023-04-21T04:19:08.461Z,14.50
2023-04-21T04:21:37.114Z,12.15
2023-04-21T04:24:06.424Z,14.73
2023-04-21T04:26:35.633Z,19.27
2023-04-21T04:29:05.225Z,23.05
2023-04-21T04:31:35.051Z,18.83
2023-04-21T04:34:03.521Z,21.38
2023-04-21T04:36:32.336Z,20.17
2023-04-21T04:39:00.816Z,23.58
2023-04-21T04:41:33.455Z,17.15
2023-04-21T04:44:04.712Z,20.67
2023-04-21T04:46:33.208Z,20.73
2023-04-21T04:49:03.444Z,17.65
2023-04-21T04:51:32.823Z,20.58
2023-04-21T04:54:01.231Z,20.40
2023-04-21T04:56:31.610Z,18.88
2023-04-21T04:59:00.101Z,26.42
2023-04-21T05:01:30.913Z,23.10
2023-04-21T05:03:59.750Z,24.48
2023-04-21T05:06:30.116Z,22.75
2023-04-21T05:08:58.501Z,23.30
2023-04-21T05:11:26.884Z,21.77
2023-04-21T05:13:55.709Z,18.90
2023-04-21T05:16:24.387Z,25.83
2023-04-21T05:18:54.092Z,21.63
2023-04-21T05:21:27.830Z,25.08
2023-04-21T05:23:58.240Z,21.13
2023-04-21T05:26:27.630Z,20.80
2023-04-21T05:28:57.122Z,21.20
2023-04-21T05:31:25.967Z,23.02
2023-04-21T05:33:54.580Z,21.13
2023-04-21T05:36:24.970Z,24.55
2023-04-21T05:38:54.165Z,23.75
2023-04-21T05:41:24.042Z,23.65
2023-04-21T05:43:52.487Z,25.60
2023-04-21T05:46:20.908Z,25.92
2023-04-21T05:48:49.380Z,22.00
2023-04-21T05:51:17.822Z,23.58
2023-04-21T05:53:46.771Z,25.45
2023-04-21T05:56:15.560Z,25.05
2023-04-21T05:58:45.382Z,30.05
2023-04-21T06:01:15.550Z,28.65
2023-04-21T06:03:44.318Z,23.27
2023-04-21T06:06:13.335Z,24.77
2023-04-21T06:08:41.759Z,25.23
2023-04-21T06:11:10.219Z,22.70
2023-04-21T06:13:39.433Z,24.17
2023-04-21T06:16:10.220Z,31.85
2023-04-21T06:18:38.671Z,31.58
2023-04-21T06:21:07.445Z,24.42
2023-04-21T06:23:35.858Z,31.55
2023-04-21T06:26:05.221Z,25.02
2023-04-21T06:28:34.048Z,30.27
2023-04-21T06:31:02.746Z,27.48
2023-04-21T06:33:32.690Z,31.35
2023-04-21T06:36:01.147Z,27.77
2023-04-21T06:38:29.553Z,30.20
2023-04-21T06:40:57.762Z,24.70
2023-04-21T06:43:26.120Z,33.22
2023-04-21T06:45:54.231Z,29.48
2023-04-21T06:48:22.356Z,31.85
2023-04-21T06:50:51.861Z,32.17
2023-04-21T06:53:21.716Z,32.50
2023-04-21T06:55:50.325Z,27.85
2023-04-21T06:58:20.646Z,26.95
2023-04-21T07:00:49.641Z,20.15
2023-04-21T07:03:18.042Z,25.42
2023-04-21T07:05:47.220Z,29.73
2023-04-21T07:08:16.816Z,27.15
2023-04-21T07:10:46.168Z,26.35
2023-04-21T07:13:14.640Z,21.80
2023-04-21T07:15:42.784Z,14.20
2023-04-21T07:18:11.069Z,20.92
2023-04-21T07:20:39.442Z,24.27
2023-04-21T07:23:07.628Z,24.45
2023-04-21T07:25:37.181Z,17.52
2023-04-21T07:28:05.407Z,24.25
2023-04-21T07:30:35.226Z,22.40
2023-04-21T07:33:03.383Z,15.85
2023-04-21T07:35:31.571Z,24.45
2023-04-21T07:37:59.844Z,21.10
2023-04-21T07:40:28.115Z,22.70
2023-04-21T07:42:57.613Z,18.55
2023-04-21T07:45:26.491Z,19.00
2023-04-21T07:47:54.962Z,18.95
2023-04-21T07:50:23.456Z,19.27
2023-04-21T07:52:51.670Z,18.35
2023-04-21T07:55:19.912Z,15.80
2023-04-21T07:57:48.079Z,15.32
2023-04-21T08:00:18.594Z,16.90
2023-04-21T08:02:47.221Z,12.02
2023-04-21T08:05:15.729Z,16.55
2023-04-21T08:07:44.150Z,16.08
2023-04-21T08:10:12.504Z,14.65
2023-04-21T08:12:40.686Z,17.42
2023-04-21T08:15:09.619Z,15.88
2023-04-21T08:17:39.616Z,14.25
2023-04-21T08:20:09.214Z,17.00
2023-04-21T08:22:37.769Z,15.40
2023-04-21T08:25:07.070Z,15.52
2023-04-21T08:27:35.469Z,14.63
2023-04-21T08:30:03.762Z,15.02
2023-04-21T08:32:32.138Z,14.10
2023-04-21T08:35:01.750Z,15.38
2023-04-21T08:37:30.513Z,14.50
2023-04-21T08:39:58.661Z,12.25
2023-04-21T08:42:26.941Z,11.63
2023-04-21T08:44:55.181Z,12.93
2023-04-21T08:47:25.235Z,11.30
2023-04-21T08:49:54.382Z,13.50
2023-04-21T08:52:23.885Z,13.45
2023-04-21T08:54:53.335Z,13.00
2023-04-21T08:57:21.791Z,13.38
2023-04-21T08:59:50.113Z,12.82
2023-04-21T09:02:20.463Z,12.45
2023-04-21T09:04:51.711Z,13.07
2023-04-21T09:07:34.094Z,13.13
2023-04-21T09:10:02.392Z,11.38
2023-04-21T09:12:31.143Z,11.35
2023-04-21T09:15:01.184Z,10.80
2023-04-21T09:17:32.731Z,12.18
2023-04-21T09:20:15.451Z,10.82
2023-04-21T09:22:45.640Z,11.80
2023-04-21T09:25:17.901Z,12.48
2023-04-21T09:27:46.896Z,12.60
2023-04-21T09:30:19.718Z,11.43
2023-04-21T09:32:48.030Z,10.90
2023-04-21T09:35:16.295Z,12.40
2023-04-21T09:37:46.254Z,11.40
2023-04-21T09:40:16.090Z,11.35
2023-04-21T09:42:45.037Z,10.88
2023-04-21T09:47:50.477Z,10.10
2023-04-21T09:50:39.208Z,10.30
2023-04-21T09:53:15.682Z,8.70
2023-04-21T09:55:45.030Z,4.55
2023-04-21T09:58:16.211Z,9.95
2023-04-21T10:00:45.012Z,9.82
2023-04-21T10:03:14.787Z,10.18
2023-04-21T10:05:43.469Z,10.18
2023-04-21T10:08:13.628Z,9.40
2023-04-21T10:10:42.254Z,8.68
2023-04-21T10:13:16.716Z,8.73
2023-04-21T10:15:45.213Z,9.43
2023-04-21T10:18:19.903Z,9.05
2023-04-21T10:20:55.323Z,8.45
2023-04-21T10:25:53.418Z,9.07
2023-04-21T10:28:21.843Z,9.82
2023-04-21T10:30:50.292Z,8.15
2023-04-21T10:33:19.672Z,7.82
2023-04-21T10:36:01.078Z,6.97
2023-04-21T10:38:36.184Z,7.13
2023-04-21T10:41:27.554Z,8.05
2023-04-21T10:43:55.991Z,7.13
2023-04-21T10:46:34.235Z,10.30
2023-04-21T10:49:09.954Z,7.43
2023-04-21T10:51:57.178Z,9.15
2023-04-21T10:54:25.965Z,6.03
2023-04-21T10:56:56.181Z,7.03
2023-04-21T10:59:24.874Z,6.70
2023-04-21T11:01:53.627Z,7.53
2023-04-21T11:04:23.654Z,6.35
2023-04-21T11:07:06.933Z,8.98
2023-04-21T11:09:35.553Z,8.40
2023-04-21T11:12:07.445Z,7.88
2023-04-21T11:14:36.987Z,8.15
2023-04-21T11:17:05.888Z,10.10
2023-04-21T11:19:34.590Z,9.07
2023-04-21T11:22:03.038Z,6.32
2023-04-21T11:24:31.591Z,8.95
2023-04-21T11:27:01.180Z,7.57
2023-04-21T11:29:31.114Z,9.52
2023-04-21T11:32:00.457Z,9.77
2023-04-21T11:34:28.932Z,10.50
2023-04-21T11:36:57.326Z,9.15
2023-04-21T11:39:25.845Z,9.32
2023-04-21T11:41:54.595Z,9.68
2023-04-21T11:44:37.202Z,10.30
2023-04-21T11:47:15.567Z,7.25
2023-04-21T11:49:48.243Z,9.60
2023-04-21T11:52:26.711Z,9.20
2023-04-21T11:55:01.046Z,9.65
2023-04-21T11:57:30.307Z,8.18
2023-04-21T12:00:02.160Z,7.97
2023-04-21T12:02:31.651Z,9.20
2023-04-21T12:05:01.333Z,7.13
2023-04-21T12:07:31.428Z,7.40
2023-04-21T12:10:00.305Z,5.68
2023-04-21T12:12:28.973Z,6.10
2023-04-21T12:14:57.490Z,7.60
2023-04-21T12:17:27.363Z,8.68
2023-04-21T12:19:55.805Z,7.25
2023-04-21T12:22:24.944Z,5.28
2023-04-21T12:24:53.335Z,4.63
2023-04-21T12:27:23.497Z,5.13
2023-04-21T12:29:51.918Z,4.43
2023-04-21T12:32:20.637Z,5.25
2023-04-21T12:34:50.422Z,5.82
2023-04-21T12:37:18.858Z,4.53
2023-04-21T12:39:47.330Z,4.75
2023-04-21T12:42:16.066Z,5.38
2023-04-21T12:44:44.511Z,4.68
2023-04-21T12:47:12.921Z,4.63
2023-04-21T12:49:41.393Z,4.72
2023-04-21T12:52:11.197Z,6.10
2023-04-21T12:54:39.653Z,5.65
2023-04-21T12:57:08.077Z,4.18
2023-04-21T12:59:36.743Z,4.90
2023-04-21T13:02:05.307Z,3.75
2023-04-21T13:04:33.866Z,3.80
2023-04-21T13:07:02.438Z,3.60
2023-04-21T13:09:32.773Z,2.92
2023-04-21T13:12:01.906Z,3.42
2023-04-21T13:14:30.430Z,2.92
2023-04-21T13:16:59.146Z,3.97
2023-04-21T13:19:28.769Z,4.05
2023-04-21T13:21:57.330Z,4.03
2023-04-21T13:24:27.059Z,3.03
2023-04-21T13:26:57.405Z,3.78
2023-04-21T13:29:29.519Z,3.20
2023-04-21T13:31:58.156Z,3.55
2023-04-21T13:34:26.693Z,3.83
2023-04-21T13:36:55.312Z,3.45
2023-04-21T13:39:23.887Z,3.42
2023-04-21T13:41:54.174Z,3.28
2023-04-21T13:44:24.234Z,3.63
2023-04-21T13:46:54.137Z,4.00
2023-04-21T13:49:22.713Z,3.20
2023-04-21T13:51:51.191Z,3.47
2023-04-21T13:54:20.245Z,3.25
2023-04-21T13:56:48.638Z,3.33
2023-04-21T13:59:17.261Z,3.42
2023-04-21T14:01:47.227Z,3.85
2023-04-21T14:04:15.916Z,3.78
2023-04-21T14:06:44.571Z,3.83
2023-04-21T14:09:13.196Z,4.28
2023-04-21T14:11:41.693Z,4.00
2023-04-21T14:14:10.532Z,5.63
2023-04-21T14:16:39.428Z,4.90
2023-04-21T14:19:10.354Z,5.07
2023-04-21T14:21:38.761Z,4.43
2023-04-21T14:24:07.177Z,6.72
2023-04-21T14:26:35.711Z,5.15
2023-04-21T14:29:04.181Z,5.13
2023-04-21T14:31:32.715Z,3.70
2023-04-21T14:34:01.623Z,4.15
2023-04-21T14:36:31.413Z,5.88
2023-04-21T14:38:59.890Z,4.50
2023-04-21T14:41:28.393Z,4.38
2023-04-21T14:43:57.868Z,5.30
2023-04-21T14:46:26.335Z,4.00
2023-04-21T14:48:55.422Z,4.25
2023-04-21T14:51:23.931Z,4.80
2023-04-21T14:53:53.838Z,4.75
2023-04-21T14:56:22.278Z,3.58
2023-04-21T14:58:50.898Z,4.15
2023-04-21T15:01:19.742Z,4.00
2023-04-21T15:03:48.400Z,3.35
2023-04-21T15:06:17.227Z,3.03
2023-04-21T15:08:45.651Z,3.83
2023-04-21T15:11:16.154Z,4.75
2023-04-21T15:13:44.581Z,4.78
2023-04-21T15:16:13.104Z,4.05
2023-04-21T15:18:41.691Z,4.43
2023-04-21T15:21:10.191Z,4.75
2023-04-21T15:23:38.597Z,3.55
2023-04-21T15:26:07.160Z,5.70
2023-04-21T15:28:37.071Z,3.85
2023-04-21T15:31:06.734Z,4.43
2023-04-21T15:33:36.320Z,5.03
2023-04-21T15:36:04.770Z,4.57
2023-04-21T15:38:33.203Z,4.22
2023-04-21T15:41:01.813Z,4.97
2023-04-21T15:43:30.619Z,4.50
2023-04-21T15:46:00.588Z,3.50
2023-04-21T15:48:29.194Z,4.38
2023-04-21T15:50:58.126Z,4.65
2023-04-21T15:53:26.689Z,4.43
2023-04-21T15:55:55.108Z,4.68
2023-04-21T15:58:23.516Z,4.10
2023-04-21T16:00:52.445Z,4.15
2023-04-21T16:03:22.606Z,3.13
2023-04-21T16:05:51.431Z,5.03
2023-04-21T16:08:20.054Z,4.18
2023-04-21T16:10:48.573Z,4.57
2023-04-21T16:13:17.085Z,4.30
2023-04-21T16:15:45.845Z,3.35
2023-04-21T16:18:14.300Z,2.30
2023-04-21T16:20:46.124Z,2.28
2023-04-21T16:23:15.057Z,2.30
2023-04-21T16:25:43.757Z,2.45
2023-04-21T16:28:12.532Z,2.17
2023-04-21T16:30:43.491Z,1.88
2023-04-21T16:33:13.112Z,1.73
2023-04-21T16:35:41.892Z,1.95
2023-04-21T16:38:11.874Z,1.60
2023-04-21T16:40:40.380Z,1.60
2023-04-21T16:43:08.977Z,1.70
2023-04-21T16:45:37.451Z,1.67
2023-04-21T16:48:06.230Z,1.42
2023-04-21T16:50:34.771Z,1.70
2023-04-21T16:53:03.300Z,1.75
2023-04-21T16:55:33.071Z,2.03
2023-04-21T16:58:01.520Z,1.77
2023-04-21T17:00:30.509Z,1.55
2023-04-21T17:02:59.231Z,1.60
2023-04-21T17:05:27.834Z,1.35
2023-04-21T17:07:56.279Z,1.52
2023-04-21T17:10:27.102Z,1.58
2023-04-21T17:12:56.994Z,1.33
2023-04-21T17:15:25.493Z,1.13
2023-04-21T17:17:54.182Z,1.52
2023-04-21T17:20:22.785Z,1.40
2023-04-21T17:22:51.300Z,1.40
2023-04-21T17:25:19.858Z,1.58
2023-04-21T17:27:48.264Z,1.30
2023-04-21T17:30:19.043Z,1.27
2023-04-21T17:32:47.459Z,1.33
2023-04-21T17:35:15.966Z,1.40
2023-04-21T17:37:44.385Z,1.80
2023-04-21T17:40:12.917Z,1.70
2023-04-21T17:42:41.756Z,1.60
2023-04-21T17:45:10.443Z,1.30
2023-04-21T17:47:40.392Z,1.23
2023-04-21T17:50:11.666Z,1.30
2023-04-21T17:52:40.079Z,1.20
2023-04-21T17:55:08.923Z,1.30
2023-04-21T17:57:37.351Z,1.13
2023-04-21T18:00:07.914Z,1.20
2023-04-21T18:02:36.522Z,1.50
2023-04-21T18:05:06.971Z,1.23
2023-04-21T18:07:35.372Z,1.20
2023-04-21T18:10:03.912Z,1.60
2023-04-21T18:12:32.323Z,1.45
2023-04-21T18:15:00.722Z,1.70
2023-04-21T18:17:29.226Z,1.50
2023-04-21T18:19:57.624Z,1.70
2023-04-21T18:22:27.440Z,1.98
2023-04-21T18:24:55.836Z,2.30
2023-04-21T18:27:24.243Z,2.22
2023-04-21T18:29:52.680Z,1.88
2023-04-21T18:32:21.268Z,2.58
2023-04-21T18:34:49.715Z,4.10
2023-04-21T18:37:18.859Z,4.00
2023-04-21T18:39:48.611Z,5.22
2023-04-21T18:42:17.091Z,5.85
2023-04-21T18:44:45.551Z,6.53
2023-04-21T18:47:15.447Z,4.70
2023-04-21T18:49:45.233Z,5.82
2023-04-21T18:52:14.064Z,7.15
2023-04-21T18:54:42.541Z,6.50
2023-04-21T18:57:12.745Z,4.43
2023-04-21T18:59:41.265Z,6.40
2023-04-21T19:02:11.732Z,5.28
2023-04-21T19:04:40.858Z,3.70
2023-04-21T19:07:11.137Z,4.60
2023-04-21T19:09:39.657Z,5.35
2023-04-21T19:12:08.597Z,4.00
2023-04-21T19:14:46.469Z,4.07
2023-04-21T19:17:15.817Z,5.22
2023-04-21T19:19:44.394Z,4.53
2023-04-21T19:22:12.929Z,5.97
2023-04-21T19:24:41.382Z,5.88
2023-04-21T19:27:09.821Z,4.78
2023-04-21T19:29:40.022Z,6.32
2023-04-21T19:32:08.572Z,5.30
2023-04-21T19:34:37.295Z,5.05
2023-04-21T19:37:06.046Z,5.45
2023-04-21T19:39:34.480Z,5.05
2023-04-21T19:42:02.898Z,6.20
2023-04-21T19:44:31.325Z,5.45
2023-04-21T19:47:01.309Z,5.43
2023-04-21T19:49:29.819Z,5.78
2023-04-21T19:51:58.237Z,5.93
2023-04-21T19:54:27.018Z,5.95
2023-04-21T19:56:55.572Z,5.90
2023-04-21T19:59:24.107Z,5.35
2023-04-21T20:01:52.586Z,3.80
2023-04-21T20:04:22.512Z,5.63
2023-04-21T20:06:51.009Z,5.28
2023-04-21T20:09:19.629Z,5.57
2023-04-21T20:11:48.051Z,5.22
2023-04-21T20:14:17.125Z,6.00
2023-04-21T20:16:46.442Z,5.43
2023-04-21T20:19:17.317Z,5.28
2023-04-21T20:21:47.222Z,5.63
2023-04-21T20:24:15.687Z,6.03
2023-04-21T20:26:44.089Z,6.28
2023-04-21T20:29:12.520Z,6.25
2023-04-21T20:31:41.223Z,5.80
2023-04-21T20:34:09.730Z,5.07
2023-04-21T20:36:38.136Z,5.93
2023-04-21T20:39:07.924Z,5.75
2023-04-21T20:41:36.387Z,5.32
2023-04-21T20:44:05.542Z,5.43
2023-04-21T20:46:34.141Z,5.95
2023-04-21T20:49:02.607Z,5.82
2023-04-21T20:51:32.691Z,7.10
2023-04-21T20:54:01.107Z,7.05
2023-04-21T20:56:30.863Z,8.63
2023-04-21T20:58:59.359Z,8.23
2023-04-21T21:01:30.611Z,7.25
2023-04-21T21:04:01.264Z,8.70
2023-04-21T21:06:30.022Z,6.93
2023-04-21T21:08:58.428Z,7.60
2023-04-21T21:11:26.863Z,8.90
2023-04-21T21:13:56.623Z,8.20
2023-04-21T21:16:25.349Z,7.18
2023-04-21T21:18:53.840Z,7.10
2023-04-21T21:21:22.257Z,8.23
2023-04-21T21:23:50.753Z,6.53
2023-04-21T21:26:19.219Z,8.57
2023-04-21T21:28:47.706Z,7.25
2023-04-21T21:31:17.572Z,6.47
2023-04-21T21:33:46.069Z,6.68
2023-04-21T21:36:14.463Z,7.28
2023-04-21T21:38:42.913Z,6.85
2023-04-21T21:41:12.372Z,7.15
2023-04-21T21:43:40.865Z,6.60
2023-04-21T21:46:09.314Z,8.57
2023-04-21T21:48:39.127Z,6.75
2023-04-21T21:51:07.664Z,7.53
2023-04-21T21:53:36.032Z,7.53
2023-04-21T21:56:04.457Z,7.57
2023-04-21T21:58:32.935Z,8.30
2023-04-21T22:01:01.461Z,8.98
2023-04-21T22:03:30.096Z,8.10
2023-04-21T22:06:00.166Z,8.43
2023-04-21T22:08:28.577Z,6.88
2023-04-21T22:10:57.185Z,6.13
2023-04-21T22:13:25.558Z,7.80
2023-04-21T22:15:54.009Z,7.85
2023-04-21T22:18:22.427Z,6.40
2023-04-21T22:20:50.894Z,6.90
2023-04-21T22:23:21.431Z,6.00
2023-04-21T22:25:49.836Z,6.57
2023-04-21T22:28:18.304Z,9.40
2023-04-21T22:30:46.804Z,5.97
2023-04-21T22:33:15.351Z,6.68
2023-04-21T22:35:43.744Z,7.55
2023-04-21T22:38:12.154Z,8.63
2023-04-21T22:40:41.964Z,8.25
2023-04-21T22:43:10.389Z,7.78
2023-04-21T22:45:38.830Z,7.88
2023-04-21T22:48:07.818Z,7.40
2023-04-21T22:50:36.203Z,7.85
2023-04-21T22:53:04.558Z,7.85
2023-04-21T22:55:33.086Z,7.68
2023-04-21T22:58:03.117Z,6.28
2023-04-21T23:00:31.513Z,6.47
2023-04-21T23:03:00.020Z,6.93
2023-04-21T23:05:28.493Z,6.90
2023-04-21T23:07:56.877Z,5.95
2023-04-21T23:10:25.467Z,6.07
2023-04-21T23:12:53.881Z,7.00
2023-04-21T23:15:23.321Z,7.03
2023-04-21T23:17:51.497Z,6.20
2023-04-21T23:20:19.873Z,8.98
2023-04-21T23:22:47.976Z,10.50
2023-04-21T23:25:16.148Z,7.55
2023-04-21T23:27:44.308Z,7.50
2023-04-21T23:30:13.413Z,7.60
2023-04-21T23:32:43.751Z,8.43
2023-04-21T23:35:12.012Z,7.65
2023-04-21T23:37:40.418Z,6.80
2023-04-21T23:40:11.358Z,7.22
2023-04-21T23:42:39.735Z,6.40
2023-04-21T23:45:09.441Z,8.23
2023-04-21T23:47:37.627Z,11.55
2023-04-21T23:50:08.549Z,8.55
2023-04-21T23:52:36.795Z,9.52
2023-04-21T23:55:05.411Z,9.45
2023-04-21T23:57:33.565Z,8.60
